• Join FlightAware (Why Join?)
  • Login
  • US Flag 
12:09AM EDT


 

Airport Tracker/Info


-or-


 

Live Flight TrackerFlight Track Log ✈ AWE3417 ✈ 02-Oct-2013 ✈ KDCA - KCMH

Flight Track Log - Related Links

Times and Time Zones

All times are in EDT time to prevent confusion due to time zone crossing. See the AWE3417 flight status page for this flight to view local times or setup timezone preferences in your user account.

Time Position Orientation Groundspeed Altitude Reporting Facility
EDT Latitude Longitude Course Direction KTS MPH feet Rate Location/Type
07:43PM 38.8833 -77.0667 277° West 168 193 1,900  Level Potomac TRACON
07:44PM 38.9333 -77.1167 322° Northwest 248 285 4,500 3,000 Climbing Potomac TRACON
07:45PM 39.0000 -77.1833 322° Northwest 271 312 7,900 3,180 Climbing Potomac TRACON
07:46PM 38.9603 -77.5263 275° West  Level Estimated
07:46PM 39.0167 -77.2833 282° West 292 336 10,900  Level Potomac TRACON
07:47PM 38.9870 -77.6487 270° West  Level Estimated
07:47PM 39.0167 -77.4000 270° West 341 392 11,900  Level Potomac TRACON
07:48PM 39.0137 -77.7712 277° West  Level Estimated
07:49PM 39.0376 -77.8819 277° West  Level Estimated
07:50PM 38.9956 -77.6722 264° West 378 435 16,600  Level Washington Center
07:51PM 38.9864 -77.8242 266° West 389 448 18,900 1,860 Climbing Washington Center
07:52PM 38.9778 -77.9519 265° West 395 455 20,300 1,500 Climbing Washington Center
07:53PM 38.9686 -78.0986 265° West 402 463 21,900 1,620 Climbing Washington Center
07:54PM 38.9633 -78.2481 267° West 413 475 23,700 1,560 Climbing Washington Center
07:55PM 38.9725 -78.3978 275° West 419 482 25,100 1,320 Climbing Washington Center
07:56PM 38.9811 -78.5531 274° West 430 495 26,400 1,200 Climbing Washington Center
07:57PM 38.9919 -78.7111 275° West 437 503 27,600 780 Climbing Washington Center
07:58PM 39.0000 -78.8689 274° West 448 516 28,000 180 Climbing Washington Center
07:59PM 39.0103 -79.0297 275° West 453 521 28,000  Level Washington Center
08:00PM 39.0219 -79.1961 275° West 459 528 28,000  Level Washington Center
08:01PM 39.0331 -79.3756 275° West 464 534 28,000  Level Washington Center
08:02PM 39.0406 -79.5364 273° West 464 534 28,000  Level Washington Center
08:03PM 39.0572 -79.7797 275° West 460 529 28,000  Level Indianapolis Center
08:04PM 39.0667 -79.9386 274° West 460 529 28,000  Level Indianapolis Center
08:05PM 39.0772 -80.0975 275° West 461 531 28,000  Level Indianapolis Center
08:06PM 39.0875 -80.2947 274° West 462 532 28,000  Level Indianapolis Center
08:07PM 39.0961 -80.4564 274° West 456 525 28,000 -120 Level Indianapolis Center
08:08PM 39.1050 -80.6189 274° West 457 526 27,800 -480 Descending Indianapolis Center
08:09PM 39.1133 -80.7781 274° West 450 518 27,100 -780 Descending Indianapolis Center
08:10PM 39.1217 -80.9367 274° West 446 513 26,300 -780 Descending Indianapolis Center
08:11PM 39.1344 -81.0953 276° West 451 519 25,600 -720 Descending Indianapolis Center
08:12PM 39.1858 -81.2419 294° West 454 522 24,900 -780 Descending Indianapolis Center
08:14PM 39.2497 -81.4147 296° West 450 518 24,100 -780 Descending Indianapolis Center
08:15PM 39.3019 -81.5581 295° West 445 512 23,400 -1,080 Descending Indianapolis Center
08:16PM 39.3547 -81.7006 296° West 442 509 21,900 -1,980 Descending Indianapolis Center
08:17PM 39.4047 -81.8394 295° West 432 497 19,400 -2,340 Descending Indianapolis Center
08:18PM 39.4536 -81.9706 296° West 411 473 17,100 -2,400 Descending Indianapolis Center
08:19PM 39.5000 -82.0992 295° West 399 459 14,600 -2,880 Descending Indianapolis Center
08:19PM 39.5153 -82.1494 292° West 392 451 13,500 -2,820 Descending Indianapolis Center
08:20PM 39.5486 -82.2350 297° West 382 440 11,700 -2,400 Descending Indianapolis Center
08:20PM 39.5614 -82.2703 295° West 375 432 11,100 -720 Descending Indianapolis Center
08:21PM 39.6203 -82.3256 324° Northwest 371 427 11,000 -240 Descending Indianapolis Center
08:21PM 39.6483 -82.3539 322° Northwest 364 419 10,900 -540 Descending Indianapolis Center
08:22PM 39.7019 -82.4014 326° Northwest 365 420 10,500 -540 Descending Indianapolis Center
08:22PM 39.7317 -82.4289 325° Northwest 359 413 10,400 -540 Descending Indianapolis Center
08:23PM 39.7803 -82.4744 324° Northwest 349 402 10,000 -600 Descending Indianapolis Center
08:23PM 39.8028 -82.5025 316° Northwest 325 374 9,800 -1,200 Descending Indianapolis Center
08:24PM 39.8617 -82.5686 319° Northwest 273 314 8,600 -1,380 Descending Indianapolis Center
08:25PM 39.9083 -82.6236 318° Northwest 275 316 7,300 -1,800 Descending Indianapolis Center
08:25PM 39.9239 -82.6464 312° West 264 304 6,600 -2,820 Descending Indianapolis Center
08:26PM 39.9547 -82.6925 311° West 256 295 4,400 -3,060 Descending Indianapolis Center
08:26PM 39.9639 -82.7128 301° West 250 288 3,800 -1,800 Descending Indianapolis Center
08:27PM 39.9925 -82.7661 305° West 250 288 2,600 -1,500 Descending Indianapolis Center
08:27PM 39.9950 -82.7831 281° West 222 255 2,300 -1,140 Descending Indianapolis Center
08:28PM 39.9992 -82.8361 276° West 216 249 1,500 -1,020 Descending Indianapolis Center
08:28PM 39.9992 -82.8522 270° West 169 194 1,300 -420 Descending Indianapolis Center
08:29PM 40.0039 -82.9078 276° West 200 230 1,100 -240 Descending Indianapolis Center